sensor_id;sensor_type;location;lat;lon;timestamp;temperature;humidity
34640;DHT22;22600;48.186;11.526;2023-06-04T00:02:13;24.10;42.80
34640;DHT22;22600;48.186;11.526;2023-06-04T00:04:38;24.10;42.80
34640;DHT22;22600;48.186;11.526;2023-06-04T00:07:04;24.10;42.70
34640;DHT22;22600;48.186;11.526;2023-06-04T00:09:30;24.00;42.70
34640;DHT22;22600;48.186;11.526;2023-06-04T00:11:55;24.10;42.70
34640;DHT22;22600;48.186;11.526;2023-06-04T00:14:21;24.10;42.80
34640;DHT22;22600;48.186;11.526;2023-06-04T00:16:46;24.10;42.70
34640;DHT22;22600;48.186;11.526;2023-06-04T00:19:12;24.10;42.70
34640;DHT22;22600;48.186;11.526;2023-06-04T00:21:37;24.00;42.70
34640;DHT22;22600;48.186;11.526;2023-06-04T00:24:03;24.10;42.70
34640;DHT22;22600;48.186;11.526;2023-06-04T00:26:28;24.10;42.70
34640;DHT22;22600;48.186;11.526;2023-06-04T00:28:54;24.00;42.60
34640;DHT22;22600;48.186;11.526;2023-06-04T00:31:19;24.10;42.60
34640;DHT22;22600;48.186;11.526;2023-06-04T00:33:46;24.10;42.60
34640;DHT22;22600;48.186;11.526;2023-06-04T00:36:12;24.00;42.50
34640;DHT22;22600;48.186;11.526;2023-06-04T00:38:37;24.00;42.40
34640;DHT22;22600;48.186;11.526;2023-06-04T00:41:03;24.10;42.50
34640;DHT22;22600;48.186;11.526;2023-06-04T00:43:28;24.10;42.40
34640;DHT22;22600;48.186;11.526;2023-06-04T00:45:56;24.00;42.30
34640;DHT22;22600;48.186;11.526;2023-06-04T00:48:22;24.00;42.30
34640;DHT22;22600;48.186;11.526;2023-06-04T00:50:48;24.00;42.20
34640;DHT22;22600;48.186;11.526;2023-06-04T00:53:14;24.00;42.20
34640;DHT22;22600;48.186;11.526;2023-06-04T00:55:39;24.00;42.20
34640;DHT22;22600;48.186;11.526;2023-06-04T00:58:05;24.10;42.20
34640;DHT22;22600;48.186;11.526;2023-06-04T01:00:31;25.70;43.00
34640;DHT22;22600;48.186;11.526;2023-06-04T01:02:57;24.00;42.10
34640;DHT22;22600;48.186;11.526;2023-06-04T01:05:36;24.10;42.20
34640;DHT22;22600;48.186;11.526;2023-06-04T01:08:03;24.00;42.10
34640;DHT22;22600;48.186;11.526;2023-06-04T01:10:29;24.00;42.10
34640;DHT22;22600;48.186;11.526;2023-06-04T01:12:55;24.00;42.10
34640;DHT22;22600;48.186;11.526;2023-06-04T01:15:20;24.00;42.00
34640;DHT22;22600;48.186;11.526;2023-06-04T01:17:48;24.10;42.10
34640;DHT22;22600;48.186;11.526;2023-06-04T01:25:33;24.00;41.90
34640;DHT22;22600;48.186;11.526;2023-06-04T01:27:59;24.00;41.90
34640;DHT22;22600;48.186;11.526;2023-06-04T01:30:26;24.00;41.90
34640;DHT22;22600;48.186;11.526;2023-06-04T01:32:53;24.80;42.30
34640;DHT22;22600;48.186;11.526;2023-06-04T01:35:20;24.00;41.90
34640;DHT22;22600;48.186;11.526;2023-06-04T01:37:45;24.00;41.90
34640;DHT22;22600;48.186;11.526;2023-06-04T01:40:11;20.40;40.10
34640;DHT22;22600;48.186;11.526;2023-06-04T01:42:37;24.00;41.90
34640;DHT22;22600;48.186;11.526;2023-06-04T01:45:02;24.00;41.90
34640;DHT22;22600;48.186;11.526;2023-06-04T01:47:28;24.00;41.90
34640;DHT22;22600;48.186;11.526;2023-06-04T01:49:54;24.00;41.80
34640;DHT22;22600;48.186;11.526;2023-06-04T01:52:19;24.00;41.80
34640;DHT22;22600;48.186;11.526;2023-06-04T01:54:46;24.00;41.90
34640;DHT22;22600;48.186;11.526;2023-06-04T01:57:14;24.00;41.90
34640;DHT22;22600;48.186;11.526;2023-06-04T01:59:39;24.00;41.80
34640;DHT22;22600;48.186;11.526;2023-06-04T02:02:06;24.00;42.40
34640;DHT22;22600;48.186;11.526;2023-06-04T02:04:32;23.90;41.80
34640;DHT22;22600;48.186;11.526;2023-06-04T02:06:57;24.90;42.30
34640;DHT22;22600;48.186;11.526;2023-06-04T02:09:25;23.90;41.80
34640;DHT22;22600;48.186;11.526;2023-06-04T02:11:51;24.00;41.90
34640;DHT22;22600;48.186;11.526;2023-06-04T02:14:16;24.10;41.90
34640;DHT22;22600;48.186;11.526;2023-06-04T02:16:42;24.00;41.90
34640;DHT22;22600;48.186;11.526;2023-06-04T02:19:07;24.00;41.90
34640;DHT22;22600;48.186;11.526;2023-06-04T02:21:33;24.00;41.90
34640;DHT22;22600;48.186;11.526;2023-06-04T02:23:58;26.80;43.50
34640;DHT22;22600;48.186;11.526;2023-06-04T02:26:23;24.00;41.90
34640;DHT22;22600;48.186;11.526;2023-06-04T02:28:50;24.00;41.90
34640;DHT22;22600;48.186;11.526;2023-06-04T02:31:15;24.00;41.90
34640;DHT22;22600;48.186;11.526;2023-06-04T02:33:41;23.90;41.90
34640;DHT22;22600;48.186;11.526;2023-06-04T02:36:06;24.00;41.90
34640;DHT22;22600;48.186;11.526;2023-06-04T02:38:34;23.90;41.90
34640;DHT22;22600;48.186;11.526;2023-06-04T02:41:00;24.00;41.90
34640;DHT22;22600;48.186;11.526;2023-06-04T02:43:25;23.90;41.90
34640;DHT22;22600;48.186;11.526;2023-06-04T02:45:50;23.90;41.80
34640;DHT22;22600;48.186;11.526;2023-06-04T02:48:16;24.00;41.90
34640;DHT22;22600;48.186;11.526;2023-06-04T02:50:41;23.90;41.90
34640;DHT22;22600;48.186;11.526;2023-06-04T02:53:07;23.90;41.90
34640;DHT22;22600;48.186;11.526;2023-06-04T02:55:33;24.00;41.90
34640;DHT22;22600;48.186;11.526;2023-06-04T02:57:59;23.90;41.90
34640;DHT22;22600;48.186;11.526;2023-06-04T03:00:25;23.90;41.90
34640;DHT22;22600;48.186;11.526;2023-06-04T03:02:51;23.90;41.90
34640;DHT22;22600;48.186;11.526;2023-06-04T03:05:17;23.90;41.90
34640;DHT22;22600;48.186;11.526;2023-06-04T03:07:43;24.00;42.00
34640;DHT22;22600;48.186;11.526;2023-06-04T03:10:10;24.10;42.00
34640;DHT22;22600;48.186;11.526;2023-06-04T03:12:35;24.00;41.90
34640;DHT22;22600;48.186;11.526;2023-06-04T03:15:01;25.70;43.50
34640;DHT22;22600;48.186;11.526;2023-06-04T03:17:27;23.90;41.90
34640;DHT22;22600;48.186;11.526;2023-06-04T03:19:53;24.00;42.00
34640;DHT22;22600;48.186;11.526;2023-06-04T03:22:18;24.00;41.90
34640;DHT22;22600;48.186;11.526;2023-06-04T03:24:44;23.90;41.90
34640;DHT22;22600;48.186;11.526;2023-06-04T03:27:10;23.90;41.90
34640;DHT22;22600;48.186;11.526;2023-06-04T03:29:36;23.90;41.90
34640;DHT22;22600;48.186;11.526;2023-06-04T03:32:01;23.90;41.90
34640;DHT22;22600;48.186;11.526;2023-06-04T03:34:27;23.90;41.90
34640;DHT22;22600;48.186;11.526;2023-06-04T03:36:53;23.90;41.90
34640;DHT22;22600;48.186;11.526;2023-06-04T03:39:19;23.90;41.90
34640;DHT22;22600;48.186;11.526;2023-06-04T03:41:44;23.90;41.90
34640;DHT22;22600;48.186;11.526;2023-06-04T03:44:12;23.90;41.90
34640;DHT22;22600;48.186;11.526;2023-06-04T03:46:37;23.90;41.90
34640;DHT22;22600;48.186;11.526;2023-06-04T03:49:03;23.90;41.90
34640;DHT22;22600;48.186;11.526;2023-06-04T03:51:28;23.80;41.80
34640;DHT22;22600;48.186;11.526;2023-06-04T03:53:54;23.90;41.90
34640;DHT22;22600;48.186;11.526;2023-06-04T03:56:20;24.00;41.90
34640;DHT22;22600;48.186;11.526;2023-06-04T03:58:46;24.10;41.90
34640;DHT22;22600;48.186;11.526;2023-06-04T04:01:12;24.00;41.90
34640;DHT22;22600;48.186;11.526;2023-06-04T04:03:37;23.90;41.90
34640;DHT22;22600;48.186;11.526;2023-06-04T04:06:03;24.30;42.10
34640;DHT22;22600;48.186;11.526;2023-06-04T04:08:28;23.90;41.90
34640;DHT22;22600;48.186;11.526;2023-06-04T04:10:59;23.90;41.90
34640;DHT22;22600;48.186;11.526;2023-06-04T04:13:25;23.90;41.80
34640;DHT22;22600;48.186;11.526;2023-06-04T04:15:50;23.90;41.80
34640;DHT22;22600;48.186;11.526;2023-06-04T04:18:19;23.90;41.90
34640;DHT22;22600;48.186;11.526;2023-06-04T04:20:45;23.90;41.80
34640;DHT22;22600;48.186;11.526;2023-06-04T04:23:11;23.90;41.80
34640;DHT22;22600;48.186;11.526;2023-06-04T04:25:37;23.90;41.80
34640;DHT22;22600;48.186;11.526;2023-06-04T04:28:03;23.90;41.80
34640;DHT22;22600;48.186;11.526;2023-06-04T04:30:33;24.00;41.90
34640;DHT22;22600;48.186;11.526;2023-06-04T04:33:03;24.00;41.80
34640;DHT22;22600;48.186;11.526;2023-06-04T04:35:30;24.00;41.80
34640;DHT22;22600;48.186;11.526;2023-06-04T04:37:58;23.90;41.80
34640;DHT22;22600;48.186;11.526;2023-06-04T04:40:23;24.00;41.90
34640;DHT22;22600;48.186;11.526;2023-06-04T04:42:48;24.00;41.90
34640;DHT22;22600;48.186;11.526;2023-06-04T04:45:14;24.00;41.80
34640;DHT22;22600;48.186;11.526;2023-06-04T04:47:39;24.00;41.80
34640;DHT22;22600;48.186;11.526;2023-06-04T04:50:05;24.00;41.80
34640;DHT22;22600;48.186;11.526;2023-06-04T04:52:31;24.00;41.80
34640;DHT22;22600;48.186;11.526;2023-06-04T04:54:56;24.00;41.80
34640;DHT22;22600;48.186;11.526;2023-06-04T04:57:23;24.00;41.80
34640;DHT22;22600;48.186;11.526;2023-06-04T04:59:49;24.00;41.80
34640;DHT22;22600;48.186;11.526;2023-06-04T05:02:14;24.10;41.80
34640;DHT22;22600;48.186;11.526;2023-06-04T05:04:40;24.00;41.70
34640;DHT22;22600;48.186;11.526;2023-06-04T05:07:05;24.10;41.80
34640;DHT22;22600;48.186;11.526;2023-06-04T05:09:31;24.10;41.70
34640;DHT22;22600;48.186;11.526;2023-06-04T05:11:56;24.10;41.70
34640;DHT22;22600;48.186;11.526;2023-06-04T05:14:23;24.10;41.70
34640;DHT22;22600;48.186;11.526;2023-06-04T05:16:48;24.10;41.80
34640;DHT22;22600;48.186;11.526;2023-06-04T05:19:15;24.10;41.80
34640;DHT22;22600;48.186;11.526;2023-06-04T05:21:41;24.20;41.80
34640;DHT22;22600;48.186;11.526;2023-06-04T05:24:07;24.00;41.70
34640;DHT22;22600;48.186;11.526;2023-06-04T05:26:32;24.10;41.70
34640;DHT22;22600;48.186;11.526;2023-06-04T05:29:00;24.10;41.70
34640;DHT22;22600;48.186;11.526;2023-06-04T05:31:26;24.10;41.70
34640;DHT22;22600;48.186;11.526;2023-06-04T05:33:54;24.10;41.70
34640;DHT22;22600;48.186;11.526;2023-06-04T05:36:20;24.10;41.70
34640;DHT22;22600;48.186;11.526;2023-06-04T05:38:45;24.10;41.60
34640;DHT22;22600;48.186;11.526;2023-06-04T05:41:11;24.20;41.70
34640;DHT22;22600;48.186;11.526;2023-06-04T05:43:37;24.20;41.70
34640;DHT22;22600;48.186;11.526;2023-06-04T05:46:03;24.20;41.70
34640;DHT22;22600;48.186;11.526;2023-06-04T05:48:28;24.20;41.70
34640;DHT22;22600;48.186;11.526;2023-06-04T05:50:54;24.20;41.70
34640;DHT22;22600;48.186;11.526;2023-06-04T05:53:19;24.20;41.60
34640;DHT22;22600;48.186;11.526;2023-06-04T05:55:45;24.20;41.60
34640;DHT22;22600;48.186;11.526;2023-06-04T05:58:10;24.20;41.60
34640;DHT22;22600;48.186;11.526;2023-06-04T06:00:36;24.20;41.60
34640;DHT22;22600;48.186;11.526;2023-06-04T06:03:01;24.20;41.60
34640;DHT22;22600;48.186;11.526;2023-06-04T06:05:27;24.20;41.60
34640;DHT22;22600;48.186;11.526;2023-06-04T06:07:52;24.20;41.50
34640;DHT22;22600;48.186;11.526;2023-06-04T06:10:18;24.20;41.50
34640;DHT22;22600;48.186;11.526;2023-06-04T06:12:43;24.20;41.50
34640;DHT22;22600;48.186;11.526;2023-06-04T06:15:09;24.20;41.40
34640;DHT22;22600;48.186;11.526;2023-06-04T06:17:35;24.30;41.40
34640;DHT22;22600;48.186;11.526;2023-06-04T06:20:00;24.30;41.40
34640;DHT22;22600;48.186;11.526;2023-06-04T06:22:31;24.30;41.30
34640;DHT22;22600;48.186;11.526;2023-06-04T06:24:57;24.30;41.20
34640;DHT22;22600;48.186;11.526;2023-06-04T06:27:23;24.30;41.20
34640;DHT22;22600;48.186;11.526;2023-06-04T06:29:48;24.30;41.10
34640;DHT22;22600;48.186;11.526;2023-06-04T06:32:14;24.20;41.10
34640;DHT22;22600;48.186;11.526;2023-06-04T06:34:39;24.30;41.10
34640;DHT22;22600;48.186;11.526;2023-06-04T06:37:06;24.30;41.00
34640;DHT22;22600;48.186;11.526;2023-06-04T06:39:31;24.30;41.00
34640;DHT22;22600;48.186;11.526;2023-06-04T06:41:57;24.30;41.00
34640;DHT22;22600;48.186;11.526;2023-06-04T06:44:23;24.30;40.90
34640;DHT22;22600;48.186;11.526;2023-06-04T06:46:48;24.30;40.90
34640;DHT22;22600;48.186;11.526;2023-06-04T06:49:14;24.30;40.90
34640;DHT22;22600;48.186;11.526;2023-06-04T06:51:39;24.30;40.80
34640;DHT22;22600;48.186;11.526;2023-06-04T06:54:05;24.40;40.90
34640;DHT22;22600;48.186;11.526;2023-06-04T06:56:30;23.20;40.30
34640;DHT22;22600;48.186;11.526;2023-06-04T06:58:56;24.40;40.90
34640;DHT22;22600;48.186;11.526;2023-06-04T07:01:21;24.60;40.90
34640;DHT22;22600;48.186;11.526;2023-06-04T07:03:47;24.40;40.80
34640;DHT22;22600;48.186;11.526;2023-06-04T07:06:12;24.50;40.90
34640;DHT22;22600;48.186;11.526;2023-06-04T07:08:38;24.40;40.80
34640;DHT22;22600;48.186;11.526;2023-06-04T07:11:04;24.30;40.70
34640;DHT22;22600;48.186;11.526;2023-06-04T07:13:29;24.40;40.80
34640;DHT22;22600;48.186;11.526;2023-06-04T07:15:57;24.40;40.80
34640;DHT22;22600;48.186;11.526;2023-06-04T07:18:23;24.40;40.80
34640;DHT22;22600;48.186;11.526;2023-06-04T07:20:48;24.40;40.90
34640;DHT22;22600;48.186;11.526;2023-06-04T07:23:14;24.50;40.80
34640;DHT22;22600;48.186;11.526;2023-06-04T07:25:40;24.50;40.80
34640;DHT22;22600;48.186;11.526;2023-06-04T07:28:05;24.40;40.80
34640;DHT22;22600;48.186;11.526;2023-06-04T07:30:31;24.50;40.80
34640;DHT22;22600;48.186;11.526;2023-06-04T07:32:57;24.50;40.60
34640;DHT22;22600;48.186;11.526;2023-06-04T07:35:23;24.50;40.60
34640;DHT22;22600;48.186;11.526;2023-06-04T07:37:48;24.40;40.60
34640;DHT22;22600;48.186;11.526;2023-06-04T07:40:14;24.50;40.60
34640;DHT22;22600;48.186;11.526;2023-06-04T07:42:41;24.50;40.60
34640;DHT22;22600;48.186;11.526;2023-06-04T07:45:07;24.50;40.60
34640;DHT22;22600;48.186;11.526;2023-06-04T07:47:33;24.50;40.60
34640;DHT22;22600;48.186;11.526;2023-06-04T07:49:59;24.50;40.60
34640;DHT22;22600;48.186;11.526;2023-06-04T07:52:25;24.50;40.60
34640;DHT22;22600;48.186;11.526;2023-06-04T07:54:50;24.50;40.60
34640;DHT22;22600;48.186;11.526;2023-06-04T07:57:15;24.50;40.50
34640;DHT22;22600;48.186;11.526;2023-06-04T07:59:41;24.50;40.50
34640;DHT22;22600;48.186;11.526;2023-06-04T08:02:06;24.50;40.50
34640;DHT22;22600;48.186;11.526;2023-06-04T08:04:32;24.50;40.50
34640;DHT22;22600;48.186;11.526;2023-06-04T08:06:58;24.50;40.50
34640;DHT22;22600;48.186;11.526;2023-06-04T08:09:23;24.50;40.50
34640;DHT22;22600;48.186;11.526;2023-06-04T08:11:49;27.60;42.30
34640;DHT22;22600;48.186;11.526;2023-06-04T08:14:14;24.50;40.40
34640;DHT22;22600;48.186;11.526;2023-06-04T08:16:40;24.50;40.30
34640;DHT22;22600;48.186;11.526;2023-06-04T08:19:06;24.50;40.30
34640;DHT22;22600;48.186;11.526;2023-06-04T08:21:32;24.50;40.30
34640;DHT22;22600;48.186;11.526;2023-06-04T08:23:58;24.50;40.30
34640;DHT22;22600;48.186;11.526;2023-06-04T08:26:24;22.80;39.50
34640;DHT22;22600;48.186;11.526;2023-06-04T08:28:51;24.50;40.20
34640;DHT22;22600;48.186;11.526;2023-06-04T08:31:16;24.50;40.20
34640;DHT22;22600;48.186;11.526;2023-06-04T08:33:44;24.50;40.30
34640;DHT22;22600;48.186;11.526;2023-06-04T08:36:10;24.50;40.30
34640;DHT22;22600;48.186;11.526;2023-06-04T08:38:35;24.60;40.30
34640;DHT22;22600;48.186;11.526;2023-06-04T08:41:02;24.60;40.30
34640;DHT22;22600;48.186;11.526;2023-06-04T08:43:30;24.50;40.30
34640;DHT22;22600;48.186;11.526;2023-06-04T08:45:59;24.60;40.30
34640;DHT22;22600;48.186;11.526;2023-06-04T08:48:26;24.60;40.30
34640;DHT22;22600;48.186;11.526;2023-06-04T08:50:53;24.60;40.30
34640;DHT22;22600;48.186;11.526;2023-06-04T08:53:20;24.50;40.20
34640;DHT22;22600;48.186;11.526;2023-06-04T08:55:46;24.50;40.10
34640;DHT22;22600;48.186;11.526;2023-06-04T08:58:12;24.40;40.00
34640;DHT22;22600;48.186;11.526;2023-06-04T09:00:40;24.50;39.90
34640;DHT22;22600;48.186;11.526;2023-06-04T09:03:05;24.50;39.90
34640;DHT22;22600;48.186;11.526;2023-06-04T09:05:31;24.50;40.00
34640;DHT22;22600;48.186;11.526;2023-06-04T09:07:56;24.50;40.00
34640;DHT22;22600;48.186;11.526;2023-06-04T09:10:25;24.50;39.90
34640;DHT22;22600;48.186;11.526;2023-06-04T09:12:51;25.90;40.80
34640;DHT22;22600;48.186;11.526;2023-06-04T09:15:17;24.50;40.10
34640;DHT22;22600;48.186;11.526;2023-06-04T09:17:43;24.50;40.00
34640;DHT22;22600;48.186;11.526;2023-06-04T09:20:17;24.50;40.00
34640;DHT22;22600;48.186;11.526;2023-06-04T09:22:43;24.50;40.00
34640;DHT22;22600;48.186;11.526;2023-06-04T09:25:18;24.50;40.10
34640;DHT22;22600;48.186;11.526;2023-06-04T09:27:44;24.50;40.00
34640;DHT22;22600;48.186;11.526;2023-06-04T09:30:09;24.50;39.90
34640;DHT22;22600;48.186;11.526;2023-06-04T09:32:35;24.50;40.00
34640;DHT22;22600;48.186;11.526;2023-06-04T09:35:13;24.40;39.80
34640;DHT22;22600;48.186;11.526;2023-06-04T09:37:40;24.40;39.90
34640;DHT22;22600;48.186;11.526;2023-06-04T09:40:06;24.50;40.00
34640;DHT22;22600;48.186;11.526;2023-06-04T09:42:41;24.40;39.80
34640;DHT22;22600;48.186;11.526;2023-06-04T09:45:08;24.40;39.70
34640;DHT22;22600;48.186;11.526;2023-06-04T09:47:42;24.40;39.80
34640;DHT22;22600;48.186;11.526;2023-06-04T09:50:09;24.40;39.80
34640;DHT22;22600;48.186;11.526;2023-06-04T09:52:34;24.40;39.80
34640;DHT22;22600;48.186;11.526;2023-06-04T09:55:00;24.40;39.90
34640;DHT22;22600;48.186;11.526;2023-06-04T09:57:26;24.50;39.90
34640;DHT22;22600;48.186;11.526;2023-06-04T09:59:53;24.50;39.90
34640;DHT22;22600;48.186;11.526;2023-06-04T10:02:20;24.40;39.80
34640;DHT22;22600;48.186;11.526;2023-06-04T10:04:56;25.60;40.50
34640;DHT22;22600;48.186;11.526;2023-06-04T10:07:24;24.30;39.80
34640;DHT22;22600;48.186;11.526;2023-06-04T10:09:50;24.40;39.80
34640;DHT22;22600;48.186;11.526;2023-06-04T10:12:16;24.30;39.80
34640;DHT22;22600;48.186;11.526;2023-06-04T10:14:52;24.30;39.80
34640;DHT22;22600;48.186;11.526;2023-06-04T10:17:17;24.40;39.70
34640;DHT22;22600;48.186;11.526;2023-06-04T10:19:46;24.30;39.70
34640;DHT22;22600;48.186;11.526;2023-06-04T10:22:13;24.30;39.80
34640;DHT22;22600;48.186;11.526;2023-06-04T10:24:38;24.30;39.80
34640;DHT22;22600;48.186;11.526;2023-06-04T10:27:04;24.30;39.70
34640;DHT22;22600;48.186;11.526;2023-06-04T10:29:35;24.30;39.70
34640;DHT22;22600;48.186;11.526;2023-06-04T10:32:01;24.30;39.80
34640;DHT22;22600;48.186;11.526;2023-06-04T10:34:27;24.30;39.80
34640;DHT22;22600;48.186;11.526;2023-06-04T10:36:52;24.50;39.70
34640;DHT22;22600;48.186;11.526;2023-06-04T10:39:31;24.30;39.70
34640;DHT22;22600;48.186;11.526;2023-06-04T10:42:00;24.30;39.80
34640;DHT22;22600;48.186;11.526;2023-06-04T10:44:26;24.20;39.70
34640;DHT22;22600;48.186;11.526;2023-06-04T10:46:51;24.30;39.80
34640;DHT22;22600;48.186;11.526;2023-06-04T10:49:25;24.30;39.80
34640;DHT22;22600;48.186;11.526;2023-06-04T10:51:51;24.30;39.80
34640;DHT22;22600;48.186;11.526;2023-06-04T10:54:22;24.30;39.80
34640;DHT22;22600;48.186;11.526;2023-06-04T10:56:48;24.30;39.90
34640;DHT22;22600;48.186;11.526;2023-06-04T10:59:14;24.30;39.90
34640;DHT22;22600;48.186;11.526;2023-06-04T11:01:40;24.20;39.80
34640;DHT22;22600;48.186;11.526;2023-06-04T11:04:05;24.20;39.80
34640;DHT22;22600;48.186;11.526;2023-06-04T11:06:31;24.30;39.90
34640;DHT22;22600;48.186;11.526;2023-06-04T11:09:01;24.30;39.90
34640;DHT22;22600;48.186;11.526;2023-06-04T11:11:27;24.20;39.90
34640;DHT22;22600;48.186;11.526;2023-06-04T11:13:53;24.20;40.00
34640;DHT22;22600;48.186;11.526;2023-06-04T11:16:19;24.30;40.00
34640;DHT22;22600;48.186;11.526;2023-06-04T11:18:57;24.20;40.00
34640;DHT22;22600;48.186;11.526;2023-06-04T11:21:24;24.30;40.10
34640;DHT22;22600;48.186;11.526;2023-06-04T11:23:54;24.30;40.20
34640;DHT22;22600;48.186;11.526;2023-06-04T11:26:20;24.30;40.30
34640;DHT22;22600;48.186;11.526;2023-06-04T11:28:49;24.30;40.10
34640;DHT22;22600;48.186;11.526;2023-06-04T11:31:15;24.20;40.10
34640;DHT22;22600;48.186;11.526;2023-06-04T11:33:41;24.40;40.20
34640;DHT22;22600;48.186;11.526;2023-06-04T11:36:06;24.30;40.20
34640;DHT22;22600;48.186;11.526;2023-06-04T11:38:32;24.30;40.20
34640;DHT22;22600;48.186;11.526;2023-06-04T11:40:58;24.20;40.00
34640;DHT22;22600;48.186;11.526;2023-06-04T11:43:24;24.30;40.00
34640;DHT22;22600;48.186;11.526;2023-06-04T11:45:50;24.20;40.00
34640;DHT22;22600;48.186;11.526;2023-06-04T11:48:15;24.20;40.00
34640;DHT22;22600;48.186;11.526;2023-06-04T11:50:41;24.30;40.10
34640;DHT22;22600;48.186;11.526;2023-06-04T11:53:07;24.30;40.10
34640;DHT22;22600;48.186;11.526;2023-06-04T11:55:32;24.20;40.00
34640;DHT22;22600;48.186;11.526;2023-06-04T11:57:58;24.20;40.10
34640;DHT22;22600;48.186;11.526;2023-06-04T12:00:23;24.20;40.10
34640;DHT22;22600;48.186;11.526;2023-06-04T12:05:16;24.30;40.20
34640;DHT22;22600;48.186;11.526;2023-06-04T12:07:45;24.20;40.20
34640;DHT22;22600;48.186;11.526;2023-06-04T12:10:11;24.30;40.20
34640;DHT22;22600;48.186;11.526;2023-06-04T12:12:39;24.20;39.90
34640;DHT22;22600;48.186;11.526;2023-06-04T12:15:08;24.20;39.90
34640;DHT22;22600;48.186;11.526;2023-06-04T12:17:35;24.20;39.90
34640;DHT22;22600;48.186;11.526;2023-06-04T12:20:01;24.20;39.90
34640;DHT22;22600;48.186;11.526;2023-06-04T12:22:26;24.20;39.80
34640;DHT22;22600;48.186;11.526;2023-06-04T12:24:53;24.20;40.00
34640;DHT22;22600;48.186;11.526;2023-06-04T12:27:23;24.20;40.00
34640;DHT22;22600;48.186;11.526;2023-06-04T12:30:03;24.20;40.00
34640;DHT22;22600;48.186;11.526;2023-06-04T12:32:29;24.20;40.70
34640;DHT22;22600;48.186;11.526;2023-06-04T12:34:54;24.20;40.00
34640;DHT22;22600;48.186;11.526;2023-06-04T12:37:20;24.80;40.30
34640;DHT22;22600;48.186;11.526;2023-06-04T12:39:46;24.20;40.00
34640;DHT22;22600;48.186;11.526;2023-06-04T12:42:12;24.20;39.80
34640;DHT22;22600;48.186;11.526;2023-06-04T12:44:38;24.20;39.90
34640;DHT22;22600;48.186;11.526;2023-06-04T12:47:03;24.40;40.10
34640;DHT22;22600;48.186;11.526;2023-06-04T12:49:29;21.40;38.70
34640;DHT22;22600;48.186;11.526;2023-06-04T12:51:55;24.20;40.10
34640;DHT22;22600;48.186;11.526;2023-06-04T12:54:20;27.00;41.60
34640;DHT22;22600;48.186;11.526;2023-06-04T12:56:46;24.20;40.00
34640;DHT22;22600;48.186;11.526;2023-06-04T12:59:12;24.20;40.00
34640;DHT22;22600;48.186;11.526;2023-06-04T13:01:37;24.20;39.90
34640;DHT22;22600;48.186;11.526;2023-06-04T13:04:03;24.20;39.90
34640;DHT22;22600;48.186;11.526;2023-06-04T13:06:29;24.20;40.60
34640;DHT22;22600;48.186;11.526;2023-06-04T13:08:54;24.20;40.00
34640;DHT22;22600;48.186;11.526;2023-06-04T13:11:20;24.20;39.90
34640;DHT22;22600;48.186;11.526;2023-06-04T13:13:47;24.30;40.00
34640;DHT22;22600;48.186;11.526;2023-06-04T13:16:12;24.20;40.00
34640;DHT22;22600;48.186;11.526;2023-06-04T13:18:38;24.20;40.10
34640;DHT22;22600;48.186;11.526;2023-06-04T13:21:03;24.30;40.00
34640;DHT22;22600;48.186;11.526;2023-06-04T13:23:29;24.20;40.00
34640;DHT22;22600;48.186;11.526;2023-06-04T13:25:54;24.20;40.00
34640;DHT22;22600;48.186;11.526;2023-06-04T13:28:20;24.20;40.00
34640;DHT22;22600;48.186;11.526;2023-06-04T13:30:45;24.20;40.00
34640;DHT22;22600;48.186;11.526;2023-06-04T13:33:11;24.30;40.00
34640;DHT22;22600;48.186;11.526;2023-06-04T13:35:36;24.20;40.00
34640;DHT22;22600;48.186;11.526;2023-06-04T13:38:03;24.30;40.00
34640;DHT22;22600;48.186;11.526;2023-06-04T13:40:29;24.20;39.70
34640;DHT22;22600;48.186;11.526;2023-06-04T13:42:55;24.20;39.80
34640;DHT22;22600;48.186;11.526;2023-06-04T13:45:20;25.10;40.20
34640;DHT22;22600;48.186;11.526;2023-06-04T13:47:47;24.20;39.70
34640;DHT22;22600;48.186;11.526;2023-06-04T13:50:13;24.20;39.80
34640;DHT22;22600;48.186;11.526;2023-06-04T13:52:38;24.30;39.80
34640;DHT22;22600;48.186;11.526;2023-06-04T13:55:04;24.20;39.70
34640;DHT22;22600;48.186;11.526;2023-06-04T13:57:29;24.20;39.80
34640;DHT22;22600;48.186;11.526;2023-06-04T13:59:55;24.20;39.70
34640;DHT22;22600;48.186;11.526;2023-06-04T14:02:20;24.20;40.40
34640;DHT22;22600;48.186;11.526;2023-06-04T14:04:46;24.20;39.80
34640;DHT22;22600;48.186;11.526;2023-06-04T14:07:11;24.20;39.80
34640;DHT22;22600;48.186;11.526;2023-06-04T14:09:37;24.20;39.80
34640;DHT22;22600;48.186;11.526;2023-06-04T14:12:03;24.20;39.80
34640;DHT22;22600;48.186;11.526;2023-06-04T14:14:28;24.20;39.70
34640;DHT22;22600;48.186;11.526;2023-06-04T14:17:04;24.20;39.70
34640;DHT22;22600;48.186;11.526;2023-06-04T14:19:30;24.20;39.70
34640;DHT22;22600;48.186;11.526;2023-06-04T14:21:55;24.20;39.70
34640;DHT22;22600;48.186;11.526;2023-06-04T14:24:21;24.20;39.80
34640;DHT22;22600;48.186;11.526;2023-06-04T14:26:47;24.20;39.80
34640;DHT22;22600;48.186;11.526;2023-06-04T14:29:12;24.20;40.40
34640;DHT22;22600;48.186;11.526;2023-06-04T14:31:38;24.20;39.80
34640;DHT22;22600;48.186;11.526;2023-06-04T14:34:04;24.20;39.80
34640;DHT22;22600;48.186;11.526;2023-06-04T14:36:29;24.00;39.70
34640;DHT22;22600;48.186;11.526;2023-06-04T14:38:55;24.20;39.90
34640;DHT22;22600;48.186;11.526;2023-06-04T14:41:21;24.20;40.00
34640;DHT22;22600;48.186;11.526;2023-06-04T14:43:46;24.20;40.60
34640;DHT22;22600;48.186;11.526;2023-06-04T14:46:12;24.20;39.90
34640;DHT22;22600;48.186;11.526;2023-06-04T14:48:37;24.30;39.90
34640;DHT22;22600;48.186;11.526;2023-06-04T14:51:03;24.20;39.90
34640;DHT22;22600;48.186;11.526;2023-06-04T14:53:28;24.20;39.80
34640;DHT22;22600;48.186;11.526;2023-06-04T14:55:54;24.20;39.70
34640;DHT22;22600;48.186;11.526;2023-06-04T14:58:19;24.20;39.80
34640;DHT22;22600;48.186;11.526;2023-06-04T15:00:45;24.20;39.80
34640;DHT22;22600;48.186;11.526;2023-06-04T15:03:10;24.20;39.70
34640;DHT22;22600;48.186;11.526;2023-06-04T15:05:36;24.20;39.80
34640;DHT22;22600;48.186;11.526;2023-06-04T15:08:02;24.20;39.70
34640;DHT22;22600;48.186;11.526;2023-06-04T15:10:28;27.20;41.40
34640;DHT22;22600;48.186;11.526;2023-06-04T15:12:54;24.20;39.70
34640;DHT22;22600;48.186;11.526;2023-06-04T15:15:20;24.20;39.50
34640;DHT22;22600;48.186;11.526;2023-06-04T15:17:45;24.20;39.60